Time;durP1;ratioP1;P1;durP2;ratioP2;P2;SDS_P1;SDS_P2;PMS_P1;PMS_P2;Temp;Humidity;BMP_temperature;BMP_pressure;BME280_temperature;BME280_humidity;BME280_pressure;Samples;Min_cycle;Max_cycle;Signal;HPM_P1;HPM_P2
2021/01/25 00:01:54;;;;;;;25.77;15.45;;;;;;;0.90;87.06;99891.09;4901440;29;20534;-84
2021/01/25 00:04:20;;;;;;;24.88;15.20;;;;;;;0.92;86.70;99896.25;4901319;29;20084;-84
2021/01/25 00:06:46;;;;;;;24.30;14.40;;;;;;;0.76;86.15;99873.75;4900090;29;20550;-78
2021/01/25 00:09:11;;;;;;;22.98;14.00;;;;;;;0.87;86.40;99903.63;4912504;29;20720;-79
2021/01/25 00:11:37;;;;;;;20.77;13.98;;;;;;;0.90;86.61;99898.16;4913986;29;20090;-79
2021/01/25 00:14:02;;;;;;;19.05;12.48;;;;;;;0.77;86.00;99882.44;4895517;29;21318;-79
2021/01/25 00:16:27;;;;;;;23.10;13.38;;;;;;;0.95;85.74;99905.69;4898790;29;20082;-78
2021/01/25 00:18:53;;;;;;;26.17;13.57;;;;;;;0.73;85.86;99887.09;4899853;29;20389;-79
2021/01/25 00:21:18;;;;;;;20.23;13.32;;;;;;;0.86;86.42;99915.94;4900247;29;20036;-79
2021/01/25 00:23:47;;;;;;;18.85;12.15;;;;;;;0.91;86.67;99916.41;4896233;29;20428;-79
2021/01/25 00:26:13;;;;;;;16.15;11.63;;;;;;;0.93;86.68;99911.06;4902927;29;20442;-79
2021/01/25 00:28:38;;;;;;;18.77;11.48;;;;;;;0.89;87.16;99918.31;4902005;29;20031;-84
2021/01/25 00:31:03;;;;;;;18.95;12.02;;;;;;;0.84;88.23;99912.56;4902671;29;20036;-83
2021/01/25 00:33:29;;;;;;;18.67;12.07;;;;;;;0.82;88.53;99917.09;4904640;29;20036;-79
2021/01/25 00:35:54;;;;;;;18.90;11.73;;;;;;;0.83;88.51;99917.91;4907123;29;20032;-83
2021/01/25 00:38:20;;;;;;;20.05;11.40;;;;;;;0.80;88.64;99919.00;4892770;29;20695;-79
2021/01/25 00:40:45;;;;;;;16.95;11.25;;;;;;;0.79;89.30;99922.56;4898138;29;20047;-83
2021/01/25 00:43:11;;;;;;;18.80;11.90;;;;;;;0.59;88.64;99884.63;4908471;29;20075;-84
2021/01/25 00:45:37;;;;;;;22.65;12.18;;;;;;;0.23;89.32;99839.13;4901186;29;20163;-79
2021/01/25 00:48:02;;;;;;;17.73;11.85;;;;;;;0.84;88.88;99920.47;4902201;29;20566;-79
2021/01/25 00:50:28;;;;;;;21.02;12.50;;;;;;;0.49;88.80;99876.59;4903563;29;20197;-83
2021/01/25 00:52:53;;;;;;;18.13;12.30;;;;;;;0.75;88.95;99932.47;4901006;29;20017;-79
2021/01/25 00:55:19;;;;;;;21.98;12.93;;;;;;;0.40;89.39;99872.03;4898054;29;20642;-79
2021/01/25 00:57:45;;;;;;;20.05;12.50;;;;;;;0.59;88.92;99901.25;4915739;29;20043;-79
2021/01/25 01:00:11;;;;;;;21.33;12.60;;;;;;;0.71;88.31;99911.81;4897404;29;20032;-84
2021/01/25 01:02:37;;;;;;;21.58;12.50;;;;;;;0.79;89.14;99933.06;4912965;29;20035;-79
2021/01/25 01:05:06;;;;;;;18.95;12.50;;;;;;;0.78;89.10;99927.94;4903554;29;20485;-79
2021/01/25 01:07:31;;;;;;;19.95;12.48;;;;;;;0.79;88.70;99929.63;4906745;29;20032;-77
2021/01/25 01:09:57;;;;;;;17.05;12.48;;;;;;;0.64;88.71;99906.16;4898464;29;20127;-78
2021/01/25 01:12:22;;;;;;;17.70;12.50;;;;;;;0.81;88.50;99930.34;4900875;29;20036;-80
2021/01/25 01:14:48;;;;;;;21.10;13.32;;;;;;;0.79;88.66;99938.34;4915268;29;20239;-79
2021/01/25 01:17:13;;;;;;;19.17;12.43;;;;;;;0.78;88.76;99943.72;4907338;29;20514;-79
2021/01/25 01:19:39;;;;;;;20.00;13.43;;;;;;;0.77;88.26;99937.59;4916188;28;20035;-83
2021/01/25 01:22:04;;;;;;;20.80;13.30;;;;;;;0.81;88.38;99949.56;4902049;29;20095;-78
2021/01/25 01:24:30;;;;;;;18.85;12.13;;;;;;;0.75;88.26;99939.50;4903659;29;20020;-79
2021/01/25 01:26:55;;;;;;;18.42;12.60;;;;;;;0.91;87.88;99952.38;4904326;29;20032;-79
2021/01/25 01:29:21;;;;;;;20.23;13.90;;;;;;;0.89;87.90;99955.09;4903161;29;20025;-78
2021/01/25 01:31:46;;;;;;;18.33;12.98;;;;;;;0.90;87.73;99962.03;4903781;29;20391;-79
2021/01/25 01:34:12;;;;;;;19.13;12.32;;;;;;;0.94;87.93;99957.41;4907138;29;20047;-83
2021/01/25 01:36:37;;;;;;;21.05;13.48;;;;;;;0.97;87.79;99970.28;4901209;29;20428;-78
2021/01/25 01:39:03;;;;;;;17.98;12.60;;;;;;;1.02;88.02;99969.94;4902747;29;20048;-79
2021/01/25 01:41:42;;;;;;;19.10;13.48;;;;;;;1.01;87.53;99968.31;4903556;29;20546;-84
2021/01/25 01:44:08;;;;;;;21.52;14.10;;;;;;;0.91;88.25;99963.69;4918540;29;20426;-78
2021/01/25 01:46:35;;;;;;;18.05;13.45;;;;;;;0.72;88.26;99926.63;4885118;29;21027;-78
2021/01/25 01:49:00;;;;;;;19.98;13.85;;;;;;;0.93;87.79;99965.38;4886369;29;20031;-78
2021/01/25 01:51:26;;;;;;;19.35;13.80;;;;;;;1.00;88.15;99974.50;4889074;29;20031;-78
2021/01/25 01:53:52;;;;;;;19.48;13.88;;;;;;;1.03;87.28;99975.09;4898447;29;20530;-78
2021/01/25 01:56:17;;;;;;;22.63;13.93;;;;;;;1.00;87.96;99971.88;4901405;29;20042;-78
2021/01/25 01:58:43;;;;;;;21.48;14.68;;;;;;;0.99;88.31;99980.72;4902938;29;20043;-78
2021/01/25 02:01:08;;;;;;;18.90;13.85;;;;;;;1.00;88.33;99975.31;4897825;29;20046;-82
2021/01/25 02:03:33;;;;;;;22.90;14.95;;;;;;;0.80;88.04;99947.06;4898495;29;20047;-78
2021/01/25 02:05:59;;;;;;;20.05;15.05;;;;;;;0.86;88.15;99951.84;4899490;29;20138;-83
2021/01/25 02:08:24;;;;;;;21.38;14.95;;;;;;;0.94;89.01;99983.69;4888004;29;20091;-78
2021/01/25 02:10:52;;;;;;;21.40;15.52;;;;;;;0.95;88.29;99987.94;4886791;29;20043;-78
2021/01/25 02:13:18;;;;;;;22.15;14.55;;;;;;;0.95;88.39;99980.06;4882121;29;20110;-79
2021/01/25 02:15:43;;;;;;;21.17;15.60;;;;;;;0.40;88.28;99900.91;4888339;29;20040;-79
2021/01/25 02:18:08;;;;;;;25.52;15.40;;;;;;;0.91;89.21;99991.78;4885421;29;20075;-78
2021/01/25 02:20:37;;;;;;;21.85;14.70;;;;;;;0.75;88.95;99965.75;4896774;29;20028;-82
2021/01/25 02:23:23;;;;;;;22.58;14.93;;;;;;;0.91;88.66;99997.84;4905191;29;20381;-78
2021/01/25 02:26:04;;;;;;;23.38;15.93;;;;;;;0.89;89.01;99999.75;4900903;29;20051;-79
2021/01/25 02:28:30;;;;;;;24.83;15.25;;;;;;;0.90;88.82;100005.84;4901776;29;20044;-83
2021/01/25 02:30:56;;;;;;;25.88;15.25;;;;;;;0.91;88.94;100015.41;4882645;29;20086;-78
2021/01/25 02:33:22;;;;;;;24.77;16.50;;;;;;;0.86;88.92;100009.66;4886551;29;20063;-83
2021/01/25 02:35:47;;;;;;;26.45;16.20;;;;;;;0.76;88.14;100001.59;4905524;29;20044;-83
2021/01/25 02:38:13;;;;;;;25.85;16.60;;;;;;;0.67;88.22;100000.47;4882668;29;20521;-79
2021/01/25 02:40:39;;;;;;;27.50;17.05;;;;;;;0.68;88.41;100010.00;4880248;29;20036;-79
2021/01/25 02:43:04;;;;;;;23.85;16.63;;;;;;;0.56;88.09;100001.25;4900914;29;20427;-78
2021/01/25 02:45:30;;;;;;;29.25;16.88;;;;;;;0.65;88.54;100018.13;4896266;29;20096;-79
2021/01/25 02:47:55;;;;;;;26.42;18.00;;;;;;;0.60;88.36;100007.09;4904637;29;20023;-78
2021/01/25 02:50:21;;;;;;;27.50;17.25;;;;;;;0.63;89.10;100024.41;4881334;29;20542;-78
2021/01/25 02:52:46;;;;;;;25.33;17.20;;;;;;;0.59;88.83;100022.03;4901785;29;20095;-83
2021/01/25 02:55:12;;;;;;;23.85;15.98;;;;;;;0.58;88.43;100017.72;4900814;29;20590;-79
2021/01/25 02:57:37;;;;;;;28.25;17.00;;;;;;;0.57;89.00;100023.94;4901794;29;20071;-78
2021/01/25 03:00:07;;;;;;;22.75;15.68;;;;;;;0.58;88.93;100027.38;4901086;29;20070;-78
2021/01/25 03:02:32;;;;;;;22.30;16.08;;;;;;;0.58;89.13;100028.22;4907705;28;20039;-79
2021/01/25 03:04:59;;;;;;;23.38;16.00;;;;;;;0.57;89.36;100030.94;4897574;29;20697;-79
2021/01/25 03:07:25;;;;;;;24.27;15.82;;;;;;;0.39;88.99;100006.84;4886552;29;20510;-78
2021/01/25 03:09:50;;;;;;;28.05;17.38;;;;;;;0.16;89.20;99969.94;4915302;29;20032;-78
2021/01/25 03:12:16;;;;;;;22.67;16.27;;;;;;;0.55;89.34;100027.59;4885668;29;20939;-79
2021/01/25 03:14:44;;;;;;;25.38;17.58;;;;;;;0.53;89.42;100034.75;4902526;29;20043;-79
2021/01/25 03:17:10;;;;;;;24.63;17.08;;;;;;;0.51;89.54;100037.47;4899067;29;20091;-78
2021/01/25 03:19:36;;;;;;;26.65;17.73;;;;;;;0.47;89.87;100033.41;4898443;29;20051;-78
2021/01/25 03:22:01;;;;;;;27.77;17.13;;;;;;;0.42;90.38;100038.94;4900370;29;20103;-79
2021/01/25 03:24:27;;;;;;;26.08;18.17;;;;;;;0.42;90.13;100038.13;4905885;29;20044;-78
2021/01/25 03:26:52;;;;;;;26.35;17.92;;;;;;;0.12;89.77;99994.69;4900376;29;20043;-79
2021/01/25 03:29:17;;;;;;;26.42;18.42;;;;;;;0.42;89.91;100040.75;4916108;29;20403;-79
2021/01/25 03:31:43;;;;;;;28.25;19.85;;;;;;;0.40;90.34;100035.63;4902930;29;20186;-79
2021/01/25 03:34:08;;;;;;;27.75;18.50;;;;;;;0.38;90.50;100037.50;4901827;29;20456;-79
2021/01/25 03:36:37;;;;;;;29.48;19.40;;;;;;;0.38;89.90;100041.91;4898830;29;20138;-78
2021/01/25 03:39:04;;;;;;;32.17;19.27;;;;;;;0.41;89.68;100046.94;4898014;29;20039;-79
2021/01/25 03:41:29;;;;;;;28.88;18.92;;;;;;;0.17;89.97;100010.97;4899668;29;20091;-83
2021/01/25 03:43:55;;;;;;;25.88;18.90;;;;;;;0.33;90.35;100044.84;4874112;29;20044;-83
2021/01/25 03:46:21;;;;;;;30.00;19.70;;;;;;;0.30;90.20;100043.28;4901926;29;20044;-78
2021/01/25 03:48:46;;;;;;;29.63;19.60;;;;;;;0.26;90.50;100046.25;4906206;29;20341;-79
2021/01/25 03:51:12;;;;;;;29.70;19.48;;;;;;;0.19;90.68;100053.69;4883865;29;20028;-79
2021/01/25 03:53:37;;;;;;;32.63;21.85;;;;;;;0.13;91.18;100054.97;4901737;29;20024;-79
2021/01/25 03:56:03;;;;;;;31.20;20.42;;;;;;;0.08;91.46;100067.53;4900898;29;20075;-84
2021/01/25 03:58:28;;;;;;;30.88;20.50;;;;;;;-0.22;91.28;100020.63;4892961;29;20044;-79
2021/01/25 04:00:54;;;;;;;27.10;19.52;;;;;;;0.10;91.03;100077.91;4889848;29;20423;-79
2021/01/25 04:03:19;;;;;;;33.58;21.00;;;;;;;0.12;91.16;100074.28;4899091;29;20235;-78
2021/01/25 04:05:45;;;;;;;31.63;20.00;;;;;;;0.06;90.87;100077.28;4899007;29;20032;-79
2021/01/25 04:08:10;;;;;;;30.80;21.23;;;;;;;0.02;91.54;100088.94;4901265;29;20072;-78
2021/01/25 04:10:36;;;;;;;30.95;20.63;;;;;;;-0.04;91.07;100079.69;4900214;29;20036;-78
2021/01/25 04:13:01;;;;;;;30.80;19.48;;;;;;;-0.02;91.45;100093.56;4902774;29;20040;-79
2021/01/25 04:15:27;;;;;;;32.28;20.15;;;;;;;-0.01;91.09;100097.88;4899145;29;20495;-80
2021/01/25 04:17:52;;;;;;;36.22;20.73;;;;;;;-0.04;91.30;100100.69;4913205;29;20032;-83
2021/01/25 04:20:17;;;;;;;36.65;20.77;;;;;;;-0.10;91.87;100110.75;4897858;29;20084;-78
2021/01/25 04:22:43;;;;;;;35.33;20.80;;;;;;;-0.32;91.40;100068.44;4884030;29;20574;-79
2021/01/25 04:25:09;;;;;;;30.80;20.45;;;;;;;-0.10;91.79;100122.09;4884563;29;20326;-79
2021/01/25 04:27:34;;;;;;;30.23;19.95;;;;;;;-0.11;91.76;100116.94;4902899;29;20491;-79
2021/01/25 04:30:00;;;;;;;31.13;20.27;;;;;;;-0.21;92.27;100103.63;4904092;29;20028;-79
2021/01/25 04:32:26;;;;;;;30.90;20.42;;;;;;;-0.12;92.03;100128.38;4867843;29;20083;-84
2021/01/25 04:34:52;;;;;;;31.30;19.88;;;;;;;-0.14;92.50;100128.47;4903521;29;20503;-79
2021/01/25 04:37:18;;;;;;;31.65;21.00;;;;;;;-0.87;91.92;100007.41;4915375;29;20087;-79
2021/01/25 04:39:43;;;;;;;31.20;21.40;;;;;;;-0.17;92.38;100126.06;4899960;29;20225;-84
2021/01/25 04:42:09;;;;;;;30.88;20.65;;;;;;;-0.20;92.32;100132.34;4892538;29;20532;-79
2021/01/25 04:44:34;;;;;;;30.42;20.20;;;;;;;-0.22;92.14;100138.66;4912335;29;20059;-83
2021/01/25 04:47:01;;;;;;;34.53;21.52;;;;;;;-0.24;93.18;100132.66;4897087;29;20492;-79
2021/01/25 04:49:27;;;;;;;33.17;22.02;;;;;;;-0.25;92.74;100139.66;4899401;29;20032;-80
2021/01/25 04:51:53;;;;;;;32.00;21.67;;;;;;;-0.28;92.51;100137.28;4884255;29;20032;-79
2021/01/25 04:54:19;;;;;;;32.90;20.40;;;;;;;-0.30;93.41;100139.16;4898074;29;20032;-84
2021/01/25 04:56:44;;;;;;;34.85;21.23;;;;;;;-0.29;92.79;100139.97;4899303;29;20040;-79
2021/01/25 04:59:10;;;;;;;32.65;20.75;;;;;;;-0.30;93.41;100144.38;4895774;29;20563;-79
2021/01/25 05:01:35;;;;;;;33.00;22.13;;;;;;;-0.33;93.58;100142.78;4909156;29;20086;-85
2021/01/25 05:04:01;;;;;;;30.08;20.35;;;;;;;-0.36;93.12;100150.00;4903530;29;20032;-80
2021/01/25 05:06:26;;;;;;;35.03;21.77;;;;;;;-0.38;93.09;100146.66;4904229;29;20064;-80
2021/01/25 05:08:52;;;;;;;31.52;20.95;;;;;;;-0.39;93.08;100177.28;4895032;29;20039;-80
2021/01/25 05:11:18;;;;;;;30.77;21.45;;;;;;;-0.39;92.98;100158.06;4915424;29;20100;-80
2021/01/25 05:13:43;;;;;;;34.65;22.02;;;;;;;-0.42;92.58;100153.88;4899330;29;20050;-80
2021/01/25 05:16:19;;;;;;;33.00;22.02;;;;;;;-0.43;92.67;100159.22;4892787;29;20568;-85
2021/01/25 05:18:45;;;;;;;34.95;22.42;;;;;;;-0.49;92.99;100169.16;4913547;29;20036;-80
2021/01/25 05:21:10;;;;;;;32.88;21.35;;;;;;;-0.44;92.64;100176.72;4886285;29;20070;-85
2021/01/25 05:23:39;;;;;;;34.60;22.27;;;;;;;-0.50;92.49;100182.38;4904533;29;20264;-84
2021/01/25 05:26:06;;;;;;;36.47;21.95;;;;;;;-0.52;92.72;100190.31;4904261;29;20365;-79
2021/01/25 05:28:40;;;;;;;36.28;21.70;;;;;;;-0.54;92.29;100181.72;4898259;29;20029;-80
2021/01/25 05:31:19;;;;;;;37.05;24.25;;;;;;;-0.60;93.09;100183.88;4898180;29;20913;-79
2021/01/25 05:33:44;;;;;;;40.92;25.48;;;;;;;-0.66;93.15;100192.97;4902342;29;20063;-79
2021/01/25 05:36:10;;;;;;;47.08;27.35;;;;;;;-0.67;93.72;100196.53;4905752;29;20756;-79
2021/01/25 05:38:36;;;;;;;43.67;27.27;;;;;;;-0.71;94.38;100195.06;4885686;29;20044;-79
2021/01/25 05:41:05;;;;;;;47.97;28.13;;;;;;;-0.75;94.21;100193.56;4903076;29;20087;-83
2021/01/25 05:43:32;;;;;;;53.47;29.63;;;;;;;-0.99;94.95;100173.22;4901698;29;20052;-79
2021/01/25 05:46:13;;;;;;;53.72;29.77;;;;;;;-0.78;94.94;100202.47;4883653;29;20468;-83
2021/01/25 05:48:39;;;;;;;53.45;31.10;;;;;;;-0.84;94.80;100215.94;4900827;29;20115;-83
2021/01/25 05:51:18;;;;;;;52.53;30.65;;;;;;;-1.03;95.10;100196.13;4897540;29;20379;-81
2021/01/25 05:53:45;;;;;;;58.00;29.85;;;;;;;-1.02;94.89;100216.16;4898883;29;20036;-83
2021/01/25 05:56:12;;;;;;;52.20;30.23;;;;;;;-0.88;95.91;100227.56;4903264;29;20039;-83
2021/01/25 05:58:37;;;;;;;51.05;28.13;;;;;;;-0.92;95.03;100232.13;4902301;29;20074;-79
2021/01/25 06:01:03;;;;;;;55.58;30.33;;;;;;;-1.17;95.60;100204.00;4905478;29;20035;-79
2021/01/25 06:03:29;;;;;;;48.58;29.90;;;;;;;-1.02;94.92;100236.25;4898111;29;20503;-80
2021/01/25 06:05:54;;;;;;;50.33;30.70;;;;;;;-1.26;95.32;100208.00;4899736;29;20071;-80
2021/01/25 06:08:27;;;;;;;50.63;31.33;;;;;;;-1.06;95.07;100247.84;4900133;29;20127;-80
2021/01/25 06:11:16;;;;;;;56.60;31.67;;;;;;;-1.08;95.61;100242.69;4863645;29;20127;-80
2021/01/25 06:13:51;;;;;;;57.42;31.17;;;;;;;-1.82;95.58;100131.94;4912340;29;20487;-79
2021/01/25 06:16:17;;;;;;;52.90;31.42;;;;;;;-1.17;95.63;100238.03;4903391;29;20051;-79
2021/01/25 06:18:43;;;;;;;51.10;31.38;;;;;;;-1.30;96.07;100230.06;4883376;29;20411;-79
2021/01/25 06:21:08;;;;;;;52.67;31.35;;;;;;;-1.54;95.35;100205.25;4885476;29;20513;-79
2021/01/25 06:23:34;;;;;;;56.28;32.78;;;;;;;-1.28;95.85;100249.13;4905030;29;20733;-80
2021/01/25 06:25:59;;;;;;;54.50;32.70;;;;;;;-1.35;95.59;100251.28;4912243;29;20031;-79
2021/01/25 06:28:25;;;;;;;54.67;33.05;;;;;;;-1.39;95.74;100253.25;4882006;29;20046;-79
2021/01/25 06:30:50;;;;;;;53.10;33.30;;;;;;;-1.37;96.50;100257.53;4880081;29;20040;-81
2021/01/25 06:33:18;;;;;;;56.15;33.63;;;;;;;-1.41;95.94;100256.88;4901495;29;20080;-85
2021/01/25 06:35:46;;;;;;;58.22;34.30;;;;;;;-1.53;96.20;100247.97;4898583;29;20055;-80
2021/01/25 06:38:16;;;;;;;56.58;34.88;;;;;;;-1.45;96.82;100258.00;4912894;29;20036;-79
2021/01/25 06:40:42;;;;;;;60.15;36.13;;;;;;;-1.43;97.37;100269.22;4913637;29;20039;-79
2021/01/25 06:43:09;;;;;;;61.85;36.95;;;;;;;-1.61;97.28;100245.81;4916650;29;20174;-83
2021/01/25 06:45:34;;;;;;;63.72;36.78;;;;;;;-1.47;97.37;100276.38;4879476;29;20203;-80
2021/01/25 06:48:00;;;;;;;68.97;36.45;;;;;;;-1.45;97.61;100278.94;4900538;29;20032;-80
2021/01/25 06:50:25;;;;;;;58.70;34.03;;;;;;;-1.46;97.08;100282.47;4897963;29;20031;-84
2021/01/25 06:52:52;;;;;;;61.03;34.92;;;;;;;-1.48;97.65;100285.16;4918125;29;20530;-79
2021/01/25 06:55:17;;;;;;;60.60;35.47;;;;;;;-1.76;97.31;100255.38;4882678;29;20048;-79
2021/01/25 06:57:43;;;;;;;57.85;34.47;;;;;;;-1.71;97.87;100266.41;4879798;29;20056;-80
2021/01/25 07:00:10;;;;;;;61.33;35.00;;;;;;;-1.55;97.56;100299.56;4887534;29;20020;-80
2021/01/25 07:02:50;;;;;;;58.90;35.25;;;;;;;-1.52;97.43;100302.00;4883500;29;20024;-80
2021/01/25 07:05:29;;;;;;;66.13;35.97;;;;;;;-1.65;97.76;100295.78;4898926;29;20031;-80
2021/01/25 07:08:22;;;;;;;61.58;35.88;;;;;;;-1.53;98.15;100313.41;4894171;29;20737;-79
2021/01/25 07:11:01;;;;;;;63.13;36.15;;;;;;;-1.51;98.18;100321.16;4901091;29;20558;-79
2021/01/25 07:13:36;;;;;;;62.30;34.70;;;;;;;-1.50;97.94;100326.31;4896800;29;20440;-80
2021/01/25 07:16:03;;;;;;;63.30;36.60;;;;;;;-1.53;97.55;100323.88;4899879;29;20051;-80
2021/01/25 07:18:28;;;;;;;57.72;35.05;;;;;;;-1.82;98.09;100281.03;4900093;29;20491;-80
2021/01/25 07:20:56;;;;;;;63.13;36.55;;;;;;;-1.55;98.15;100334.41;4881115;29;20059;-80
2021/01/25 07:23:22;;;;;;;62.17;35.50;;;;;;;-1.55;98.34;100339.63;4898725;29;20055;-79
2021/01/25 07:25:55;;;;;;;59.05;35.08;;;;;;;-1.89;98.15;100281.41;4913478;29;20036;-79
2021/01/25 07:28:22;;;;;;;56.13;34.78;;;;;;;-1.96;98.00;100279.22;4900560;29;20345;-78
2021/01/25 07:30:47;;;;;;;57.92;35.45;;;;;;;-1.57;98.45;100348.53;4895477;29;20036;-79
2021/01/25 07:33:13;;;;;;;60.33;36.25;;;;;;;-1.86;98.58;100307.38;4897550;29;20586;-81
2021/01/25 07:35:38;;;;;;;62.70;35.67;;;;;;;-1.55;98.46;100357.13;4895739;29;20035;-82
2021/01/25 07:38:04;;;;;;;63.95;35.30;;;;;;;-1.67;98.68;100337.72;4884358;29;20910;-79
2021/01/25 07:40:29;;;;;;;64.22;34.40;;;;;;;-1.54;98.06;100359.66;4879884;29;20040;-79
2021/01/25 07:42:55;;;;;;;62.03;33.20;;;;;;;-1.58;98.01;100358.16;4896487;29;20123;-81
2021/01/25 07:45:22;;;;;;;63.00;34.15;;;;;;;-1.56;97.95;100366.75;4912752;29;20037;-79
2021/01/25 07:47:47;;;;;;;65.32;35.28;;;;;;;-1.58;97.88;100366.00;4904069;29;20491;-79
2021/01/25 07:50:13;;;;;;;72.85;36.00;;;;;;;-1.63;98.13;100362.78;4908811;29;20035;-80
2021/01/25 07:52:39;;;;;;;64.03;34.42;;;;;;;-1.54;98.32;100383.19;4904605;29;20047;-80
2021/01/25 07:55:14;;;;;;;68.95;35.67;;;;;;;-1.83;98.27;100332.50;4908403;29;20040;-80
2021/01/25 07:57:46;;;;;;;70.20;34.75;;;;;;;-1.51;98.34;100394.44;4907210;29;20095;-79
2021/01/25 08:00:19;;;;;;;65.07;36.38;;;;;;;-1.51;98.17;100394.44;4898597;29;20094;-80
2021/01/25 08:02:47;;;;;;;66.35;35.63;;;;;;;-1.50;98.34;100393.50;4906877;29;20038;-79
2021/01/25 08:05:13;;;;;;;;;;;;;;;-1.50;98.26;100398.75;4906779;29;20055;-78
2021/01/25 08:07:39;;;;;;;66.55;36.35;;;;;;;-1.49;98.59;100395.19;4893975;29;20063;-80
2021/01/25 08:10:05;;;;;;;66.70;37.13;;;;;;;-1.67;98.31;100369.13;4922773;28;20071;-80
2021/01/25 08:12:30;;;;;;;64.20;37.85;;;;;;;-1.58;98.10;100393.94;4886791;29;20032;-80
2021/01/25 08:15:00;;;;;;;65.55;37.72;;;;;;;-1.51;98.59;100410.13;4889130;29;20516;-79
2021/01/25 08:17:32;;;;;;;70.00;38.88;;;;;;;-1.62;98.90;100388.03;4905443;29;20242;-82
2021/01/25 08:20:01;;;;;;;70.70;39.65;;;;;;;-1.36;98.95;100418.91;4906254;29;20028;-78
2021/01/25 08:22:32;;;;;;;74.07;41.72;;;;;;;-1.30;99.37;100427.28;4922022;29;20032;-79
2021/01/25 08:24:59;;;;;;;71.03;40.83;;;;;;;-1.30;99.03;100427.28;4906112;29;20020;-80
2021/01/25 08:27:25;;;;;;;80.07;41.65;;;;;;;-1.17;99.25;100437.88;4910858;29;20543;-78
2021/01/25 08:30:00;;;;;;;83.25;42.88;;;;;;;-1.11;98.96;100441.91;4906770;29;20036;-79
2021/01/25 08:32:27;;;;;;;75.75;42.30;;;;;;;-1.02;98.70;100454.50;4906548;29;20028;-77
2021/01/25 08:35:00;;;;;;;74.10;40.65;;;;;;;-0.98;98.47;100453.38;4899023;29;20043;-77
2021/01/25 08:37:27;;;;;;;70.10;40.22;;;;;;;-0.96;98.01;100448.06;4905403;29;20401;-77
2021/01/25 08:39:53;;;;;;;67.25;39.45;;;;;;;-0.97;98.21;100444.59;4893135;29;20053;-77
2021/01/25 08:42:31;;;;;;;78.75;40.33;;;;;;;-0.80;97.84;100461.13;4917132;29;20044;-83
2021/01/25 08:45:04;;;;;;;;;;;;;;;-0.77;97.61;100466.19;4921718;29;20040;-77
2021/01/25 08:47:31;;;;;;;71.30;38.35;;;;;;;-0.69;97.19;100473.59;4894774;29;19915;-76
2021/01/25 08:49:57;;;;;;;64.90;38.00;;;;;;;-0.87;97.54;100442.28;4885979;29;20071;-77
2021/01/25 08:52:22;;;;;;;65.82;38.35;;;;;;;-0.62;97.09;100469.66;4907497;29;20023;-83
2021/01/25 08:54:48;;;;;;;62.50;38.58;;;;;;;-0.59;97.30;100464.25;4908290;29;20040;-83
2021/01/25 08:57:21;;;;;;;66.75;41.22;;;;;;;-0.53;97.65;100470.91;4905199;29;20274;-81
2021/01/25 08:59:47;;;;;;;69.00;41.22;;;;;;;-0.48;97.47;100464.47;4905425;29;20032;-77
2021/01/25 09:02:12;;;;;;;66.60;40.08;;;;;;;-0.42;97.39;100476.34;4921754;29;20171;-77
2021/01/25 09:04:38;;;;;;;62.45;38.25;;;;;;;-0.35;97.27;100480.31;4901812;29;20036;-77
2021/01/25 09:07:03;;;;;;;63.22;38.95;;;;;;;-0.39;96.30;100467.44;4904818;29;20047;-78
2021/01/25 09:09:29;;;;;;;61.10;37.13;;;;;;;-0.20;96.26;100481.16;4883418;29;20032;-78
2021/01/25 09:11:56;;;;;;;58.13;35.70;;;;;;;-0.11;96.00;100486.78;4902977;29;20047;-77
2021/01/25 09:14:22;;;;;;;55.15;35.30;;;;;;;-0.03;95.10;100493.25;4903897;29;20044;-78
2021/01/25 09:16:49;;;;;;;56.47;35.00;;;;;;;0.06;94.69;100494.47;4904649;29;20040;-84
2021/01/25 09:19:15;;;;;;;55.47;33.22;;;;;;;0.06;95.06;100488.41;4905135;29;20055;-77
2021/01/25 09:21:41;;;;;;;50.03;31.20;;;;;;;0.21;94.31;100500.53;4886379;29;20487;-83
2021/01/25 09:24:06;;;;;;;45.83;30.27;;;;;;;0.28;94.15;100504.50;4875562;29;20347;-84
2021/01/25 09:26:32;;;;;;;42.97;29.98;;;;;;;0.35;94.01;100517.22;4905937;29;20043;-77
2021/01/25 09:28:58;;;;;;;42.88;27.80;;;;;;;0.43;93.90;100512.34;4906520;29;20129;-84
2021/01/25 09:31:26;;;;;;;37.38;25.08;;;;;;;0.39;93.75;100498.59;4901661;29;20281;-84
2021/01/25 09:33:53;;;;;;;37.15;24.60;;;;;;;0.54;92.96;100516.94;4905925;29;20174;-77
2021/01/25 09:36:18;;;;;;;36.92;24.00;;;;;;;0.63;92.83;100524.25;4907512;29;20502;-77
2021/01/25 09:38:44;;;;;;;34.72;21.95;;;;;;;0.70;91.91;100537.81;4907972;29;20044;-77
2021/01/25 09:41:10;;;;;;;35.08;22.75;;;;;;;0.37;91.88;100474.22;4909791;29;20515;-77
2021/01/25 09:43:35;;;;;;;29.98;21.23;;;;;;;0.80;91.87;100541.56;4900187;29;20514;-77
2021/01/25 09:46:01;;;;;;;28.15;19.77;;;;;;;0.86;91.31;100541.19;4887437;29;20029;-77
2021/01/25 09:48:26;;;;;;;32.42;21.98;;;;;;;0.89;90.93;100546.22;4919403;29;20106;-77
2021/01/25 09:50:52;;;;;;;35.75;24.88;;;;;;;0.89;90.84;100546.22;4903030;29;20031;-83
2021/01/25 09:53:17;;;;;;;37.22;24.65;;;;;;;0.93;90.95;100543.41;4905825;29;20297;-76
2021/01/25 09:55:43;;;;;;;43.03;26.60;;;;;;;0.98;90.92;100551.84;4917909;29;20115;-77
2021/01/25 09:58:08;;;;;;;38.97;24.75;;;;;;;0.76;91.14;100519.91;4904211;29;20043;-77
2021/01/25 10:00:34;;;;;;;37.97;24.23;;;;;;;1.09;91.38;100559.03;4906604;29;20031;-77
2021/01/25 10:02:59;;;;;;;36.13;24.30;;;;;;;1.11;90.39;100565.88;4905019;29;20044;-77
2021/01/25 10:05:25;;;;;;;31.23;22.60;;;;;;;1.16;90.39;100574.28;4897565;29;20067;-77
2021/01/25 10:07:50;;;;;;;35.08;20.23;;;;;;;1.19;90.18;100571.47;4900476;29;20141;-78
2021/01/25 10:10:16;;;;;;;28.02;19.30;;;;;;;1.11;90.15;100554.50;4899700;29;20051;-77
2021/01/25 10:12:42;;;;;;;27.80;18.63;;;;;;;1.27;89.86;100581.50;4861146;29;20046;-78
2021/01/25 10:15:09;;;;;;;27.10;18.45;;;;;;;1.18;89.58;100567.16;4899177;29;20711;-78
2021/01/25 10:17:35;;;;;;;28.08;17.67;;;;;;;1.13;89.71;100566.63;4879263;29;20040;-77
2021/01/25 10:20:01;;;;;;;27.20;17.67;;;;;;;1.00;89.50;100542.06;4894324;29;20423;-82
2021/01/25 10:22:26;;;;;;;26.55;17.83;;;;;;;1.36;89.66;100593.19;4868231;29;20087;-82
2021/01/25 10:24:52;;;;;;;26.58;18.10;;;;;;;1.40;89.42;100596.47;4895353;29;20419;-82
2021/01/25 10:27:17;;;;;;;25.70;18.63;;;;;;;1.43;89.88;100606.81;4895723;29;20067;-77
2021/01/25 10:29:43;;;;;;;24.42;17.88;;;;;;;1.48;89.42;100605.56;4900251;29;20048;-77
2021/01/25 10:32:08;;;;;;;31.95;18.73;;;;;;;1.36;89.65;100582.69;4914478;29;20428;-77
2021/01/25 10:34:34;;;;;;;27.13;17.42;;;;;;;1.55;89.73;100623.56;4882920;29;20047;-78
2021/01/25 10:36:59;;;;;;;23.42;16.35;;;;;;;1.50;89.58;100603.66;4893980;29;20509;-77
2021/01/25 10:39:25;;;;;;;25.27;15.80;;;;;;;1.65;89.54;100616.75;4898022;29;20078;-77
2021/01/25 10:41:50;;;;;;;22.80;15.75;;;;;;;1.68;89.25;100617.41;4895620;29;20515;-77
2021/01/25 10:44:17;;;;;;;23.10;14.98;;;;;;;1.72;89.30;100609.31;4900132;29;20047;-77
2021/01/25 10:46:44;;;;;;;22.90;15.65;;;;;;;1.52;88.96;100577.25;4917078;29;20351;-82
2021/01/25 10:49:09;;;;;;;25.95;15.55;;;;;;;1.86;89.14;100632.91;4901244;29;20253;-77
2021/01/25 10:51:35;;;;;;;23.40;14.85;;;;;;;1.92;89.00;100629.88;4900975;29;20827;-82
2021/01/25 10:54:00;;;;;;;25.92;15.90;;;;;;;1.96;88.31;100636.63;4897939;29;20047;-82
2021/01/25 10:56:26;;;;;;;25.00;15.70;;;;;;;1.97;88.46;100629.56;4910203;29;20051;-83
2021/01/25 10:58:51;;;;;;;21.98;15.43;;;;;;;2.00;88.13;100639.88;4910158;29;20123;-78
2021/01/25 11:01:17;;;;;;;26.15;17.30;;;;;;;2.09;88.50;100647.19;4898727;29;20039;-83
2021/01/25 11:03:42;;;;;;;25.38;17.40;;;;;;;2.10;88.63;100638.31;4905316;29;20767;-84
2021/01/25 11:06:13;;;;;;;24.92;16.67;;;;;;;2.18;88.69;100650.13;4902289;29;20040;-76
2021/01/25 11:08:39;;;;;;;23.55;17.88;;;;;;;2.23;88.31;100640.16;4891401;29;20485;-77
2021/01/25 11:11:05;;;;;;;28.08;18.02;;;;;;;2.26;87.75;100650.44;4878879;29;20036;-77
2021/01/25 11:13:30;;;;;;;28.77;18.65;;;;;;;2.32;87.74;100655.31;4894502;29;20038;-77
2021/01/25 11:15:56;;;;;;;26.35;17.25;;;;;;;2.32;86.81;100647.41;4891898;29;20060;-82